Airfield :
LOGIN :

Register | Disclaimer

   EN    FR    IT 

 










Legend :    VFR   Marginal VFR   IFR   Intensive IFR   Very Intensive IFR
Visi :
Ceiling :
>= 8 km
>= 3000ft
5 to 8 km
1000 to 3000 ft
1500m to 5 km
500 to 1000 ft
800 to 1500m
200 to 500 ft
< 800m
< 200 ft
Symbols :   Thunderstorms  Fog  Heavy snow  Heavy precipitations  Wind > 20 kt
SIGMETs :     Misc.  Thunderstorms  Icing  Turbulence  Mountain Waves  Volcanic Ashes






- Airport Elevation : 788 ft
- IATA code : DCM


LFCK - Castres-Mazamet

CURRENT METAR :
  • 221000Z AUTO 11023G34KT 9000 -RADZ BKN025/// OVC035/// ///CB 10/08 Q1025 TEMPO 4000 RA

EXPIRED METARs :
  • 220930Z AUTO 11023G39KT 9999 -DZ BKN029/// BKN038/// OVC050/// ///CB 10/08 Q1025 TEMPO 4000 RA
  • 220900Z AUTO 10022G33KT 6000 -RA SCT027/// SCT037/// BKN044/// ///TCU 10/08 Q1025 TEMPO 4000 RA
  • 220830Z AUTO 11018KT 6000 2500 RA BKN030 BKN037 OVC056 09/08 Q1025 BECMG 10018G30KT NSW
  • 220800Z AUTO 11017KT 9999 -RA SCT030/// BKN035/// BKN048/// ///CB 09/07 Q1025 BECMG 10018G30KT BKN025
  • 220730Z AUTO 10013KT 9999 -RA BKN030/// OVC037/// ///TCU 09/07 Q1025 BECMG 10018G30KT BKN025

TAF TAF LFCK
Valid from the 22 at 09:00 until the 22 at 18:00 UTC


220800Z 2209/2218 12022G32KT 9999 -RA FEW015 OVC030
TEMPO 2209/2215 4000 RA BKN015 FEW030TCU OVC040



MET'MAP, your aeronautical weather chart ! - Copyright ORBIFLY December 2007 - Disclaimer

ORBIFLY MET'MAP TEAM :

Programming & Development : Alexandra Zaïnal
Concept & original design : Baudouin d'Aumeries
Assistance for programming : Marc-Olivier Méhu
Technical & hardware support : Manuel Goepfert

Contact : metmap@orbifly.com




SOURCES & CREDITS :

   NOAA